Time;durP1;ratioP1;P1;durP2;ratioP2;P2;SDS_P1;SDS_P2;PMS_P1;PMS_P2;Temp;Humidity;BMP_temperature;BMP_pressure;BME280_temperature;BME280_humidity;BME280_pressure;Samples;Min_cycle;Max_cycle;Signal;HPM_P1;HPM_P2
2022/05/07 00:00:28;;;;;;;27.90;18.23;;;14.70;49.20;;;;;;4992065;28;20179;-74
2022/05/07 00:02:54;;;;;;;26.43;18.67;;;14.70;48.90;;;;;;4991592;28;20196;-75
2022/05/07 00:05:20;;;;;;;25.50;18.20;;;14.70;49.10;;;;;;4990802;28;20405;-74
2022/05/07 00:07:47;;;;;;;33.03;17.20;;;14.70;48.70;;;;;;4990692;28;20660;-73
2022/05/07 00:10:13;;;;;;;26.97;17.87;;;14.60;49.30;;;;;;4990951;28;20721;-74
2022/05/07 00:12:38;;;;;;;34.23;18.80;;;14.50;49.60;;;;;;4990755;28;20441;-74
2022/05/07 00:15:04;;;;;;;27.93;17.23;;;14.50;49.70;;;;;;4988945;28;20442;-74
2022/05/07 00:20:15;;;;;;;30.57;17.37;;;14.40;51.80;;;;;;4991676;28;20420;-74
2022/05/07 00:22:40;;;;;;;37.50;18.83;;;14.40;51.50;;;;;;4991823;28;20406;-74
2022/05/07 00:25:06;;;;;;;26.07;17.90;;;14.50;49.70;;;;;;4989122;28;20977;-74
2022/05/07 00:27:32;;;;;;;25.27;17.60;;;14.50;50.00;;;;;;4992817;28;20692;-75
2022/05/07 00:29:57;;;;;;;30.23;18.13;;;14.40;50.00;;;;;;4994738;28;20251;-74
2022/05/07 00:32:23;;;;;;;25.70;18.23;;;14.50;49.30;;;;;;4995619;28;20176;-75
2022/05/07 00:34:49;;;;;;;27.30;17.53;;;14.40;49.80;;;;;;4992894;28;20660;-75
2022/05/07 00:37:14;;;;;;;31.30;18.57;;;14.30;50.20;;;;;;4987117;28;20198;-74
2022/05/07 00:39:40;;;;;;;27.47;18.50;;;14.20;50.80;;;;;;4993628;28;20223;-74
2022/05/07 00:42:07;;;;;;;34.20;19.63;;;14.30;52.00;;;;;;4994218;28;20877;-72
2022/05/07 00:44:33;;;;;;;30.63;19.70;;;14.20;51.50;;;;;;4992973;28;20182;-74
2022/05/07 00:47:15;;;;;;;39.73;19.10;;;14.30;50.80;;;;;;4993530;28;20437;-74
2022/05/07 00:49:49;;;;;;;31.90;18.90;;;14.30;50.60;;;;;;4994571;28;20432;-74
2022/05/07 00:52:15;;;;;;;35.77;19.13;;;14.60;51.30;;;;;;4994905;28;20551;-74
2022/05/07 00:54:41;;;;;;;25.80;17.97;;;14.30;50.70;;;;;;4994889;28;20460;-74
2022/05/07 00:57:09;;;;;;;27.20;18.40;;;14.30;49.90;;;;;;4985445;28;20556;-74
2022/05/07 00:59:34;;;;;;;27.00;17.47;;;14.30;49.60;;;;;;4995081;28;20543;-75
2022/05/07 01:02:00;;;;;;;31.20;19.27;;;14.30;50.40;;;;;;4994292;28;20969;-74
2022/05/07 01:04:26;;;;;;;29.40;19.70;;;14.30;50.60;;;;;;4993881;28;20269;-75
2022/05/07 01:06:53;;;;;;;37.20;21.67;;;14.30;49.80;;;;;;4993041;28;20194;-75
2022/05/07 01:09:19;;;;;;;36.77;21.57;;;14.00;51.20;;;;;;4993286;28;20225;-75
2022/05/07 01:11:46;;;;;;;35.50;21.93;;;13.90;51.40;;;;;;4993244;28;20878;-73
2022/05/07 01:14:11;;;;;;;27.73;18.70;;;13.70;52.00;;;;;;4994663;28;20839;-74
2022/05/07 01:16:37;;;;;;;29.60;19.80;;;13.50;51.80;;;;;;4993596;28;20436;-74
2022/05/07 01:19:02;;;;;;;29.93;19.80;;;13.50;51.70;;;;;;4993160;28;20217;-75
2022/05/07 01:21:29;;;;;;;35.83;20.13;;;13.60;51.90;;;;;;4991616;28;20201;-75
2022/05/07 01:23:55;;;;;;;27.90;19.50;;;13.80;51.80;;;;;;4994068;28;20555;-75
2022/05/07 01:26:22;;;;;;;35.73;20.63;;;14.00;49.40;;;;;;4994680;28;20447;-75
2022/05/07 01:28:48;;;;;;;34.10;19.63;;;14.00;49.70;;;;;;4993903;28;20456;-75
2022/05/07 01:31:14;;;;;;;30.87;20.47;;;14.00;49.10;;;;;;4991951;28;20524;-75
2022/05/07 01:33:40;;;;;;;43.23;19.60;;;14.20;49.00;;;;;;4992459;28;20527;-74
2022/05/07 01:36:16;;;;;;;25.63;18.23;;;14.00;48.40;;;;;;4987827;28;20201;-74
2022/05/07 01:38:42;;;;;;;39.80;19.87;;;13.90;49.50;;;;;;4992566;28;20562;-74
2022/05/07 01:41:08;;;;;;;36.37;19.53;;;13.80;50.80;;;;;;4992741;28;20519;-74
2022/05/07 01:43:33;;;;;;;33.63;20.70;;;13.80;50.80;;;;;;4992965;28;20182;-74
2022/05/07 01:46:03;;;;;;;27.20;19.70;;;13.70;49.80;;;;;;4988768;28;20433;-73
2022/05/07 01:48:29;;;;;;;33.03;20.70;;;13.60;50.60;;;;;;4993992;28;20212;-75
2022/05/07 01:50:54;;;;;;;36.93;19.43;;;13.50;51.80;;;;;;4994194;28;20504;-74
2022/05/07 01:53:22;;;;;;;33.67;19.43;;;13.50;50.80;;;;;;4992665;28;20185;-75
2022/05/07 01:55:47;;;;;;;29.77;19.40;;;13.40;50.90;;;;;;4993868;28;20421;-75
2022/05/07 01:58:13;;;;;;;31.13;18.93;;;13.30;51.20;;;;;;4993814;28;20468;-75
2022/05/07 02:00:40;;;;;;;33.43;17.70;;;13.30;51.50;;;;;;4993324;28;20186;-75
2022/05/07 02:03:07;;;;;;;30.60;18.80;;;13.30;51.60;;;;;;4991743;28;20181;-72
2022/05/07 02:05:32;;;;;;;32.10;18.30;;;13.30;51.60;;;;;;4987415;28;20918;-75
2022/05/07 02:07:58;;;;;;;29.27;18.93;;;13.30;51.60;;;;;;4993551;28;20468;-75
2022/05/07 02:10:25;;;;;;;36.60;19.20;;;13.40;51.70;;;;;;4993062;28;20193;-76
2022/05/07 02:12:52;;;;;;;27.57;18.33;;;13.60;52.00;;;;;;4992294;28;20993;-74
2022/05/07 02:15:18;;;;;;;41.80;19.53;;;13.30;52.10;;;;;;4993381;28;20417;-75
2022/05/07 02:17:43;;;;;;;29.20;18.25;;;13.30;51.60;;;;;;4992422;28;20469;-75
2022/05/07 02:20:09;;;;;;;34.90;19.90;;;13.30;52.30;;;;;;4992451;28;20196;-75
2022/05/07 02:22:35;;;;;;;26.90;17.60;;;13.10;51.50;;;;;;4991940;28;20269;-75
2022/05/07 02:25:01;;;;;;;36.13;19.27;;;13.20;51.50;;;;;;4990882;28;20437;-75
2022/05/07 02:27:27;;;;;;;36.43;19.93;;;13.10;52.80;;;;;;4993524;28;20437;-74
2022/05/07 02:29:52;;;;;;;30.33;17.83;;;13.10;52.80;;;;;;4992375;28;20178;-74
2022/05/07 02:32:18;;;;;;;36.63;21.60;;;13.20;52.60;;;;;;4991702;28;20672;-75
2022/05/07 02:34:45;;;;;;;28.70;19.23;;;13.30;51.60;;;;;;4992143;28;20206;-76
2022/05/07 02:37:10;;;;;;;28.03;20.00;;;13.30;50.90;;;;;;4992828;28;20508;-75
2022/05/07 02:39:37;;;;;;;28.80;19.20;;;13.40;51.70;;;;;;4992578;28;20441;-75
2022/05/07 02:44:48;;;;;;;28.70;18.30;;;13.30;49.80;;;;;;4987346;28;20911;-75
2022/05/07 02:47:13;;;;;;;28.87;19.70;;;13.20;50.80;;;;;;4992496;28;20472;-75
2022/05/07 02:49:39;;;;;;;33.30;19.97;;;13.20;49.60;;;;;;4992830;28;20216;-74
2022/05/07 02:52:05;;;;;;;26.10;18.90;;;13.10;49.80;;;;;;4992345;28;20174;-75
2022/05/07 02:54:31;;;;;;;31.97;19.10;;;13.20;50.20;;;;;;4986771;28;20186;-74
2022/05/07 02:56:57;;;;;;;33.57;20.10;;;13.10;50.10;;;;;;4987606;28;20461;-73
2022/05/07 02:59:23;;;;;;;26.90;18.17;;;13.20;50.20;;;;;;4993050;28;20193;-76
2022/05/07 03:01:49;;;;;;;27.30;19.10;;;13.20;50.30;;;;;;4992580;28;20413;-74
2022/05/07 03:04:14;;;;;;;28.83;18.67;;;13.20;49.70;;;;;;4989102;28;20186;-75
2022/05/07 03:06:40;;;;;;;29.77;18.10;;;13.20;49.10;;;;;;4987160;28;20184;-74
2022/05/07 03:09:06;;;;;;;28.40;18.80;;;13.20;50.00;;;;;;4991423;28;20333;-73
2022/05/07 03:11:34;;;;;;;29.92;19.40;;;13.20;49.80;;;;;;4990769;28;20534;-74
2022/05/07 03:14:03;;;;;;;29.02;19.00;;;13.20;49.20;;;;;;4990802;28;20269;-75
2022/05/07 03:16:30;;;;;;;27.20;19.27;;;13.00;49.00;;;;;;4990528;28;20654;-74
2022/05/07 03:18:55;;;;;;;27.43;19.30;;;13.00;48.60;;;;;;4990998;28;20846;-74
2022/05/07 03:21:21;;;;;;;27.10;17.93;;;13.00;49.80;;;;;;4991194;28;20432;-75
2022/05/07 03:23:47;;;;;;;32.80;19.53;;;12.70;50.20;;;;;;4992429;28;20180;-74
2022/05/07 03:26:13;;;;;;;37.07;19.23;;;12.60;51.40;;;;;;4990213;28;20182;-74
2022/05/07 03:28:39;;;;;;;29.90;19.80;;;12.50;50.90;;;;;;4991986;28;20204;-74
2022/05/07 03:31:05;;;;;;;27.80;19.73;;;12.40;51.50;;;;;;4991935;28;20798;-74
2022/05/07 03:33:31;;;;;;;33.53;21.00;;;12.50;52.00;;;;;;4991328;28;20413;-75
2022/05/07 03:35:57;;;;;;;44.07;19.60;;;13.00;51.10;;;;;;4990658;28;20436;-75
2022/05/07 03:38:22;;;;;;;28.33;19.43;;;12.60;50.70;;;;;;4992042;28;20559;-74
2022/05/07 03:40:48;;;;;;;32.23;19.47;;;12.60;49.60;;;;;;4991105;28;20187;-73
2022/05/07 03:43:15;;;;;;;29.30;18.67;;;12.90;49.30;;;;;;4991959;28;20205;-75
2022/05/07 03:45:40;;;;;;;29.02;18.13;;;12.60;50.60;;;;;;4991156;28;20177;-74
2022/05/07 03:48:07;;;;;;;28.30;18.90;;;12.60;49.70;;;;;;4989578;28;20213;-74
2022/05/07 03:50:32;;;;;;;30.20;19.75;;;12.60;48.80;;;;;;4991652;28;20192;-73
2022/05/07 03:55:43;;;;;;;32.10;19.00;;;12.70;49.10;;;;;;4991337;28;20192;-73
2022/05/07 03:58:15;;;;;;;25.70;18.30;;;12.50;50.70;;;;;;4990278;28;20735;-75
2022/05/07 04:00:42;;;;;;;30.92;18.50;;;12.60;49.60;;;;;;4989935;28;20449;-72
2022/05/07 04:03:08;;;;;;;26.67;18.40;;;12.60;49.90;;;;;;4997364;28;20224;-75
2022/05/07 04:05:34;;;;;;;26.43;18.27;;;12.80;51.20;;;;;;4996360;28;20831;-73
2022/05/07 04:07:59;;;;;;;27.00;18.37;;;12.60;49.60;;;;;;4996831;28;20460;-75
2022/05/07 04:10:25;;;;;;;28.70;18.27;;;12.60;50.20;;;;;;5000213;28;20673;-74
2022/05/07 04:12:51;;;;;;;27.17;18.90;;;12.60;49.20;;;;;;4997670;28;20194;-73
2022/05/07 04:15:20;;;;;;;31.17;18.20;;;12.50;49.50;;;;;;4998530;28;20184;-75
2022/05/07 04:17:46;;;;;;;26.75;19.42;;;12.40;49.70;;;;;;4997133;28;20209;-74
2022/05/07 04:20:12;;;;;;;32.23;19.37;;;12.50;50.40;;;;;;4997154;28;20632;-74
2022/05/07 04:22:38;;;;;;;40.73;19.47;;;12.60;49.20;;;;;;4997865;28;20185;-74
2022/05/07 04:25:05;;;;;;;29.92;17.70;;;12.70;48.70;;;;;;4997163;28;20178;-74
2022/05/07 04:27:31;;;;;;;28.05;19.40;;;12.60;49.10;;;;;;4997390;28;20256;-74
2022/05/07 04:30:00;;;;;;;37.53;18.53;;;13.90;49.90;;;;;;4995716;28;20178;-73
2022/05/07 04:32:26;;;;;;;26.83;18.00;;;12.60;48.50;;;;;;4997814;28;20236;-70
2022/05/07 04:34:52;;;;;;;27.75;18.63;;;12.60;49.60;;;;;;4996998;28;20189;-73
2022/05/07 04:37:18;;;;;;;32.60;19.23;;;12.70;48.70;;;;;;4996770;28;20247;-74
2022/05/07 04:39:43;;;;;;;28.15;18.77;;;12.60;49.30;;;;;;4996867;28;20200;-73
2022/05/07 04:42:10;;;;;;;28.30;19.43;;;12.60;49.60;;;;;;4998943;28;20252;-73
2022/05/07 04:44:35;;;;;;;36.85;19.90;;;12.80;50.20;;;;;;4997597;28;20177;-73
2022/05/07 04:47:02;;;;;;;44.60;20.37;;;12.60;50.40;;;;;;4996905;28;20188;-73
2022/05/07 04:49:27;;;;;;;28.38;19.90;;;12.60;51.00;;;;;;4996359;28;20310;-74
2022/05/07 04:51:53;;;;;;;30.67;18.83;;;13.00;51.40;;;;;;4997544;28;20266;-73
2022/05/07 04:54:20;;;;;;;36.40;18.73;;;13.10;51.50;;;;;;4997017;28;20595;-73
2022/05/07 04:56:46;;;;;;;35.63;20.45;;;12.60;51.30;;;;;;4997374;28;20702;-73
2022/05/07 04:59:13;;;;;;;28.88;19.05;;;12.60;52.60;;;;;;4997976;28;20201;-72
2022/05/07 05:01:39;;;;;;;26.47;19.73;;;12.60;51.90;;;;;;4990749;28;20555;-73
2022/05/07 05:04:05;;;;;;;35.43;20.20;;;12.90;51.30;;;;;;4996739;28;20428;-73
2022/05/07 05:06:30;;;;;;;31.67;20.50;;;12.90;51.30;;;;;;4997071;28;20209;-72
2022/05/07 05:08:56;;;;;;;40.13;19.90;;;12.80;51.20;;;;;;4997732;28;20202;-73
2022/05/07 05:11:21;;;;;;;29.30;19.63;;;12.80;51.20;;;;;;4996991;28;20182;-73
2022/05/07 05:13:47;;;;;;;34.37;22.00;;;12.90;52.40;;;;;;4992174;28;20212;-73
2022/05/07 05:16:13;;;;;;;32.13;19.40;;;12.80;52.20;;;;;;4993843;28;20552;-73
2022/05/07 05:18:39;;;;;;;37.03;20.30;;;12.70;51.70;;;;;;4994165;28;20471;-72
2022/05/07 05:21:04;;;;;;;30.17;19.40;;;12.30;52.90;;;;;;4994666;28;20171;-73
2022/05/07 05:23:30;;;;;;;35.27;21.77;;;11.70;57.00;;;;;;4992398;28;20532;-72
2022/05/07 05:25:56;;;;;;;45.67;30.20;;;11.90;57.10;;;;;;4993019;28;20173;-73
2022/05/07 05:28:22;;;;;;;65.23;42.07;;;11.80;56.10;;;;;;4986416;28;20472;-73
2022/05/07 05:30:51;;;;;;;37.03;23.40;;;11.50;59.40;;;;;;4993570;28;20548;-73
2022/05/07 05:33:21;;;;;;;40.70;25.83;;;11.90;58.10;;;;;;4992084;28;20670;-73
2022/05/07 05:35:47;;;;;;;35.97;22.13;;;12.30;55.70;;;;;;4992908;28;20474;-73
2022/05/07 05:38:13;;;;;;;34.93;22.77;;;13.00;55.10;;;;;;4992782;28;20672;-74
2022/05/07 05:40:41;;;;;;;33.20;24.23;;;13.00;53.00;;;;;;4993524;28;20467;-73
2022/05/07 05:43:06;;;;;;;39.90;23.90;;;13.20;53.00;;;;;;4991511;28;20214;-71
2022/05/07 05:45:32;;;;;;;37.33;22.73;;;13.50;51.80;;;;;;4986972;28;20461;-73
2022/05/07 05:47:58;;;;;;;35.33;24.00;;;13.60;51.40;;;;;;4990933;28;20269;-73
2022/05/07 05:50:23;;;;;;;31.80;21.97;;;13.80;51.00;;;;;;4992771;28;20186;-72
2022/05/07 05:52:49;;;;;;;33.63;22.33;;;13.90;50.40;;;;;;4993123;28;20190;-73
2022/05/07 05:55:14;;;;;;;30.20;20.87;;;13.90;50.30;;;;;;4991672;28;20586;-73
2022/05/07 05:57:40;;;;;;;31.60;22.20;;;14.00;50.10;;;;;;4993499;28;20210;-74
2022/05/07 06:00:09;;;;;;;45.50;22.67;;;14.20;50.10;;;;;;4993366;28;20212;-72
2022/05/07 06:02:36;;;;;;;36.77;23.93;;;14.20;50.10;;;;;;4993966;28;20551;-73
2022/05/07 06:05:01;;;;;;;31.70;23.00;;;14.10;50.30;;;;;;4992694;28;20907;-74
2022/05/07 06:07:27;;;;;;;35.93;22.53;;;14.10;50.20;;;;;;4992767;28;20451;-74
2022/05/07 06:09:52;;;;;;;34.17;21.50;;;14.00;51.00;;;;;;4992769;28;20216;-75
2022/05/07 06:12:18;;;;;;;35.70;23.37;;;14.20;51.50;;;;;;4992013;28;20186;-74
2022/05/07 06:14:44;;;;;;;34.80;24.07;;;14.30;49.90;;;;;;4993529;28;20201;-74
2022/05/07 06:17:09;;;;;;;45.23;24.87;;;13.90;51.40;;;;;;4991670;28;20210;-74
2022/05/07 06:19:35;;;;;;;37.77;23.37;;;13.60;53.40;;;;;;4991993;28;20320;-73
2022/05/07 06:22:00;;;;;;;35.70;24.10;;;13.80;52.10;;;;;;4992782;28;20186;-73
2022/05/07 06:27:28;;;;;;;36.73;25.10;;;14.40;51.40;;;;;;4991859;28;20735;-73
2022/05/07 06:30:00;;;;;;;33.37;23.07;;;14.60;48.80;;;;;;4993164;28;20417;-75
2022/05/07 06:32:36;;;;;;;37.57;24.70;;;14.50;50.30;;;;;;4993250;28;20409;-74
2022/05/07 06:35:03;;;;;;;36.03;23.03;;;14.80;49.10;;;;;;4992524;28;20436;-74
2022/05/07 06:37:30;;;;;;;38.00;23.13;;;14.70;47.20;;;;;;4991176;28;20444;-74
2022/05/07 06:39:56;;;;;;;39.77;23.80;;;13.90;51.60;;;;;;4991825;28;20429;-74
2022/05/07 06:42:22;;;;;;;36.03;21.00;;;15.30;52.40;;;;;;4991983;28;20435;-73
2022/05/07 06:44:47;;;;;;;28.23;20.50;;;13.80;53.50;;;;;;4992940;28;20175;-73
2022/05/07 06:47:13;;;;;;;28.97;20.97;;;13.70;53.80;;;;;;4990966;28;20735;-73
2022/05/07 06:49:38;;;;;;;31.70;18.43;;;13.70;55.00;;;;;;4991467;28;20680;-73
2022/05/07 06:52:04;;;;;;;26.13;17.57;;;13.80;54.60;;;;;;4992367;28;20545;-73
2022/05/07 06:54:30;;;;;;;26.53;16.93;;;14.10;52.20;;;;;;4992660;28;20269;-72
2022/05/07 06:56:56;;;;;;;24.70;16.37;;;13.60;55.00;;;;;;4989668;28;21273;-73
2022/05/07 06:59:21;;;;;;;23.97;16.80;;;13.40;56.50;;;;;;4988512;28;20209;-73
2022/05/07 07:01:47;;;;;;;29.47;18.17;;;13.70;57.00;;;;;;4988052;28;20172;-74
2022/05/07 07:04:13;;;;;;;26.57;17.07;;;13.80;54.60;;;;;;4996034;28;20212;-75
2022/05/07 07:06:39;;;;;;;22.50;15.60;;;13.40;56.30;;;;;;4991796;28;20963;-76
2022/05/07 07:09:05;;;;;;;27.27;17.63;;;13.20;57.80;;;;;;4996929;28;20210;-76
2022/05/07 07:11:31;;;;;;;35.23;17.50;;;13.30;58.00;;;;;;4990892;28;20184;-76
2022/05/07 07:13:57;;;;;;;29.47;16.80;;;13.30;57.70;;;;;;4990447;28;20183;-76
2022/05/07 07:16:22;;;;;;;26.83;16.90;;;13.50;56.20;;;;;;4992708;28;20930;-76
2022/05/07 07:18:48;;;;;;;21.17;15.83;;;14.00;54.30;;;;;;4989996;28;20275;-77
2022/05/07 07:21:14;;;;;;;32.93;16.77;;;13.90;54.30;;;;;;4992357;28;20421;-76
2022/05/07 07:23:40;;;;;;;23.53;17.50;;;16.60;56.00;;;;;;4989047;28;20250;-73
2022/05/07 07:26:06;;;;;;;34.10;18.50;;;14.60;52.10;;;;;;4992938;28;20519;-73
2022/05/07 07:28:31;;;;;;;27.63;18.57;;;14.80;52.00;;;;;;4992303;28;20232;-75
2022/05/07 07:31:00;;;;;;;26.90;17.63;;;17.80;50.80;;;;;;4990205;28;20416;-73
2022/05/07 07:33:26;;;;;;;28.83;18.40;;;14.70;51.00;;;;;;4991849;28;20223;-73
2022/05/07 07:35:51;;;;;;;26.43;18.17;;;15.30;47.60;;;;;;4991807;28;20832;-73
2022/05/07 07:38:17;;;;;;;25.30;16.50;;;15.50;47.60;;;;;;4985588;28;20679;-74
2022/05/07 07:40:49;;;;;;;25.20;16.57;;;14.90;47.90;;;;;;4988760;28;20178;-73
2022/05/07 07:43:16;;;;;;;23.73;16.97;;;15.20;48.60;;;;;;4986360;28;20184;-72
2022/05/07 07:48:25;;;;;;;27.17;17.50;;;15.70;47.90;;;;;;4983381;28;20538;-71
2022/05/07 07:50:51;;;;;;;28.70;18.03;;;16.10;46.80;;;;;;4988155;28;20433;-70
2022/05/07 07:53:17;;;;;;;23.93;17.00;;;16.30;43.30;;;;;;4987202;28;20198;-71
2022/05/07 07:55:42;;;;;;;24.60;16.20;;;16.30;42.30;;;;;;4988107;28;20193;-73
2022/05/07 07:58:10;;;;;;;33.83;17.70;;;16.70;42.80;;;;;;4986569;28;20245;-71
2022/05/07 08:00:37;;;;;;;21.40;16.63;;;17.20;40.50;;;;;;4984715;28;20229;-72
2022/05/07 08:03:08;;;;;;;24.30;16.57;;;17.50;39.30;;;;;;4987222;28;20443;-72
2022/05/07 08:05:36;;;;;;;23.13;15.57;;;17.60;39.50;;;;;;4986794;28;20421;-71
2022/05/07 08:13:37;;;;;;;25.37;16.30;;;17.20;40.10;;;;;;4987945;28;20933;-71
2022/05/07 08:16:04;;;;;;;29.27;17.10;;;17.80;38.00;;;;;;4987109;28;20429;-75
2022/05/07 08:18:30;;;;;;;25.60;17.00;;;17.60;35.40;;;;;;4986713;28;20562;-73
2022/05/07 08:20:56;;;;;;;27.10;16.37;;;16.80;39.50;;;;;;4987144;28;20436;-73
2022/05/07 08:23:22;;;;;;;23.77;16.03;;;17.40;38.70;;;;;;4991186;28;20773;-72
2022/05/07 08:25:48;;;;;;;28.97;16.33;;;17.70;37.80;;;;;;4988993;28;20180;-73
2022/05/07 08:28:15;;;;;;;24.40;16.63;;;18.20;36.40;;;;;;4990154;28;20540;-71
2022/05/07 08:30:41;;;;;;;27.83;16.27;;;18.50;35.60;;;;;;4988194;28;20425;-71
2022/05/07 08:33:07;;;;;;;26.30;16.77;;;18.10;35.80;;;;;;4988102;28;20455;-73
2022/05/07 08:35:33;;;;;;;25.93;16.47;;;17.90;36.50;;;;;;4986698;28;20443;-71
2022/05/07 08:37:58;;;;;;;30.13;15.17;;;17.80;36.60;;;;;;4987849;28;20229;-71
2022/05/07 08:40:25;;;;;;;28.60;16.67;;;17.30;39.10;;;;;;4986567;28;21665;-72
2022/05/07 08:42:51;;;;;;;21.00;15.60;;;17.30;38.00;;;;;;4987172;28;20174;-71
2022/05/07 08:45:17;;;;;;;26.83;15.10;;;17.70;37.50;;;;;;4985479;28;20432;-69
2022/05/07 08:47:43;;;;;;;25.33;16.67;;;18.30;37.10;;;;;;4986884;28;20300;-71
2022/05/07 08:50:12;;;;;;;25.10;17.90;;;18.90;35.10;;;;;;4987749;28;20316;-70
2022/05/07 08:52:40;;;;;;;28.73;17.47;;;19.20;35.60;;;;;;4991800;28;20519;-69
2022/05/07 08:55:06;;;;;;;29.43;17.37;;;19.20;34.70;;;;;;4989357;28;21411;-71
2022/05/07 08:57:32;;;;;;;25.17;17.80;;;19.30;32.60;;;;;;4992104;28;20481;-73
2022/05/07 08:59:58;;;;;;;36.93;18.57;;;19.10;33.50;;;;;;4991443;28;20809;-72
2022/05/07 09:02:23;;;;;;;24.97;17.37;;;19.60;34.90;;;;;;4993594;28;20178;-73
2022/05/07 09:04:57;;;;;;;25.90;16.23;;;19.20;33.40;;;;;;4993658;28;20434;-73
2022/05/07 09:07:23;;;;;;;24.93;16.93;;;18.40;35.70;;;;;;4993421;28;20570;-75
2022/05/07 09:09:50;;;;;;;23.70;17.10;;;18.80;35.40;;;;;;4995025;28;20411;-75
2022/05/07 09:12:29;;;;;;;25.07;17.27;;;18.90;35.00;;;;;;4992436;28;20585;-73
2022/05/07 09:15:02;;;;;;;27.97;17.30;;;19.30;35.90;;;;;;4990540;28;20429;-73
2022/05/07 09:17:28;;;;;;;23.60;17.30;;;19.40;35.70;;;;;;4988884;28;20483;-73
2022/05/07 09:19:54;;;;;;;28.10;17.47;;;18.90;34.80;;;;;;4994702;28;20451;-73
2022/05/07 09:22:19;;;;;;;25.67;17.67;;;18.70;37.80;;;;;;4993807;28;20275;-73
2022/05/07 09:24:54;;;;;;;26.63;17.33;;;19.30;35.40;;;;;;4993132;28;20591;-73
2022/05/07 09:27:20;;;;;;;27.03;17.50;;;19.60;32.90;;;;;;4994280;28;20559;-73
2022/05/07 09:29:45;;;;;;;28.60;17.10;;;19.30;35.00;;;;;;4994259;28;20437;-73
2022/05/07 09:32:16;;;;;;;28.10;17.40;;;19.80;33.80;;;;;;4993368;28;20438;-74
2022/05/07 09:37:35;;;;;;;28.63;16.10;;;20.40;32.70;;;;;;4994561;28;20424;-73
2022/05/07 09:40:06;;;;;;;21.30;15.90;;;20.80;30.10;;;;;;4993996;28;20580;-76
2022/05/07 09:42:36;;;;;;;31.90;16.07;;;21.30;31.10;;;;;;4992685;28;20982;-74
2022/05/07 09:45:03;;;;;;;24.17;14.10;;;21.70;28.80;;;;;;4993995;28;20414;-73
2022/05/07 09:47:29;;;;;;;19.50;15.10;;;21.90;29.20;;;;;;4993429;28;20489;-73
2022/05/07 09:58:10;;;;;;;25.50;15.10;;;20.60;29.90;;;;;;4993188;28;20478;-73
2022/05/07 10:00:49;;;;;;;20.50;13.87;;;20.70;29.70;;;;;;4993640;28;20408;-74
2022/05/07 10:03:45;;;;;;;23.40;14.07;;;21.40;29.20;;;;;;4993199;28;20176;-73
2022/05/07 10:06:34;;;;;;;22.93;15.07;;;21.80;28.20;;;;;;4993814;28;20392;-74
2022/05/07 10:09:18;;;;;;;25.97;13.90;;;22.00;28.40;;;;;;4990030;28;20447;-73
2022/05/07 10:11:44;;;;;;;20.63;13.03;;;22.30;27.50;;;;;;4993228;28;20426;-75
2022/05/07 10:14:23;;;;;;;25.27;12.70;;;22.40;26.20;;;;;;4992996;28;20935;-75
2022/05/07 10:16:59;;;;;;;24.50;11.90;;;22.60;27.30;;;;;;4993426;28;20440;-74
2022/05/07 10:19:44;;;;;;;20.20;12.10;;;22.70;26.00;;;;;;4993217;28;20465;-73
2022/05/07 10:22:26;;;;;;;18.70;11.40;;;22.70;26.80;;;;;;4993389;28;20411;-73
2022/05/07 10:25:11;;;;;;;19.30;11.10;;;22.10;25.90;;;;;;4993266;28;20428;-73
2022/05/07 10:27:42;;;;;;;17.20;9.87;;;22.40;27.70;;;;;;4993189;28;20486;-73
2022/05/07 10:30:12;;;;;;;14.47;7.80;;;22.50;26.00;;;;;;4993340;28;20767;-74
2022/05/07 10:32:59;;;;;;;18.63;9.53;;;23.40;24.40;;;;;;4992671;28;20535;-73
2022/05/07 10:35:45;;;;;;;17.60;9.93;;;23.70;23.30;;;;;;4992819;28;20912;-74
2022/05/07 10:38:36;;;;;;;12.80;10.07;;;24.20;23.00;;;;;;4981902;28;20495;-75
2022/05/07 10:41:07;;;;;;;12.30;8.83;;;24.40;22.00;;;;;;4985834;28;20433;-73
2022/05/07 10:43:42;;;;;;;12.87;7.50;;;24.40;23.60;;;;;;4992759;28;20539;-76
2022/05/07 10:46:12;;;;;;;9.47;7.10;;;24.50;19.80;;;;;;4992600;28;20420;-73
2022/05/07 10:48:53;;;;;;;10.53;7.03;;;24.10;21.90;;;;;;4993232;28;20520;-73
2022/05/07 10:51:39;;;;;;;10.63;6.20;;;22.60;21.80;;;;;;4992443;28;20436;-74
2022/05/07 10:54:21;;;;;;;13.40;6.63;;;21.90;21.30;;;;;;4992785;28;20400;-73
2022/05/07 10:56:58;;;;;;;17.20;7.70;;;22.20;21.70;;;;;;4989721;28;20523;-75
2022/05/07 10:59:26;;;;;;;12.60;7.27;;;21.60;23.10;;;;;;4984483;28;20468;-73
2022/05/07 11:02:02;;;;;;;13.10;7.70;;;21.90;24.50;;;;;;4987791;28;20432;-74
2022/05/07 11:04:28;;;;;;;12.30;7.17;;;22.50;23.20;;;;;;4988783;28;20435;-74
2022/05/07 11:06:54;;;;;;;12.10;7.40;;;22.80;23.20;;;;;;4991146;28;20433;-74
2022/05/07 11:09:20;;;;;;;15.57;7.90;;;23.90;21.20;;;;;;4989546;28;20244;-76
2022/05/07 11:11:54;;;;;;;15.43;7.40;;;24.70;19.40;;;;;;4990325;28;20190;-77
2022/05/07 11:14:23;;;;;;;18.27;7.00;;;23.00;21.40;;;;;;4990949;28;20472;-76
2022/05/07 11:16:49;;;;;;;14.73;7.63;;;23.60;23.20;;;;;;4992255;28;20884;-74
2022/05/07 11:19:31;;;;;;;9.97;7.33;;;24.50;22.10;;;;;;4990439;28;20492;-74
2022/05/07 11:22:01;;;;;;;12.30;8.33;;;25.40;21.20;;;;;;4991243;28;20428;-76
2022/05/07 11:24:28;;;;;;;13.93;8.10;;;26.00;18.60;;;;;;4990595;28;20527;-74
2022/05/07 11:26:56;;;;;;;13.73;6.67;;;25.60;17.80;;;;;;4991601;28;20436;-76
2022/05/07 11:29:23;;;;;;;18.97;7.47;;;24.10;19.90;;;;;;4987157;28;20523;-76
2022/05/07 11:32:00;;;;;;;10.30;6.47;;;24.60;22.40;;;;;;4990738;28;20435;-76
2022/05/07 11:34:32;;;;;;;10.40;7.20;;;25.30;21.50;;;;;;4990386;28;21260;-76
2022/05/07 11:37:13;;;;;;;14.80;7.00;;;24.40;19.30;;;;;;4990830;28;20424;-74
2022/05/07 11:39:51;;;;;;;11.47;7.80;;;24.40;21.50;;;;;;4991113;28;20460;-73
2022/05/07 11:42:26;;;;;;;11.07;7.90;;;22.10;22.00;;;;;;4991944;28;20875;-71
2022/05/07 11:47:37;;;;;;;14.17;7.30;;;23.30;22.60;;;;;;4989376;28;20485;-72
2022/05/07 11:50:05;;;;;;;12.30;7.30;;;24.00;22.00;;;;;;4991636;28;20421;-72
2022/05/07 11:52:30;;;;;;;9.27;7.13;;;24.40;22.20;;;;;;4990347;28;20183;-76
2022/05/07 11:54:56;;;;;;;10.53;7.80;;;25.10;20.50;;;;;;4991924;28;20937;-73
2022/05/07 11:57:33;;;;;;;14.30;6.97;;;26.10;20.00;;;;;;4989963;28;20209;-73
2022/05/07 12:00:16;;;;;;;13.63;7.07;;;26.40;17.90;;;;;;4990547;28;20173;-75
2022/05/07 12:02:53;;;;;;;11.00;6.23;;;27.10;17.80;;;;;;4989233;28;20937;-72
2022/05/07 12:05:19;;;;;;;11.13;6.83;;;28.30;17.80;;;;;;4991390;28;20405;-72
2022/05/07 12:07:50;;;;;;;9.23;6.43;;;28.30;17.30;;;;;;4992028;28;20483;-72
2022/05/07 12:10:17;;;;;;;9.77;5.60;;;29.10;16.30;;;;;;4989351;28;20479;-72
2022/05/07 12:12:43;;;;;;;10.23;5.80;;;28.90;17.10;;;;;;4987097;28;20461;-72
2022/05/07 12:15:09;;;;;;;12.00;5.23;;;28.80;15.30;;;;;;4990818;28;20421;-75
2022/05/07 12:17:53;;;;;;;11.77;5.37;;;27.50;15.80;;;;;;4991050;28;20483;-74
2022/05/07 12:20:23;;;;;;;10.30;4.77;;;27.10;15.40;;;;;;4991720;28;20432;-72
2022/05/07 12:31:10;;;;;;;10.13;5.03;;;28.40;15.10;;;;;;4993025;28;20427;-72
2022/05/07 12:33:37;;;;;;;8.93;5.40;;;27.10;14.70;;;;;;4995169;28;20417;-73
2022/05/07 12:36:03;;;;;;;8.70;6.00;;;27.30;16.50;;;;;;4994308;28;20526;-71
2022/05/07 12:38:29;;;;;;;11.70;6.40;;;28.20;14.70;;;;;;4995270;28;20451;-70
2022/05/07 12:40:54;;;;;;;5.50;4.37;;;28.50;14.30;;;;;;4992506;28;20436;-71
2022/05/07 12:43:20;;;;;;;8.00;5.03;;;29.20;14.40;;;;;;4992096;28;20182;-71
2022/05/07 12:45:49;;;;;;;9.40;4.70;;;29.50;13.60;;;;;;4991747;28;20268;-75
2022/05/07 12:48:14;;;;;;;6.90;3.93;;;28.80;12.90;;;;;;4992673;28;20197;-71
2022/05/07 12:50:40;;;;;;;5.63;4.00;;;28.60;14.40;;;;;;4989591;28;20527;-71
2022/05/07 12:53:06;;;;;;;8.03;4.33;;;27.50;13.10;;;;;;4990720;28;20563;-73
2022/05/07 12:55:32;;;;;;;14.43;4.70;;;27.90;13.80;;;;;;4993924;28;20197;-70
2022/05/07 12:57:59;;;;;;;13.03;4.30;;;29.00;13.20;;;;;;4994417;28;20240;-73
2022/05/07 13:00:25;;;;;;;9.23;4.60;;;29.00;13.30;;;;;;4993666;28;20436;-72
2022/05/07 13:02:53;;;;;;;8.73;4.73;;;30.00;12.70;;;;;;4992775;28;20432;-73
2022/05/07 13:05:19;;;;;;;8.63;4.07;;;30.30;10.50;;;;;;4993885;28;20667;-73
2022/05/07 13:07:44;;;;;;;10.80;4.20;;;30.40;11.60;;;;;;4990475;28;21349;-78
2022/05/07 13:10:10;;;;;;;7.47;4.40;;;30.80;10.00;;;;;;4993757;28;20527;-72
2022/05/07 13:12:36;;;;;;;10.07;4.23;;;30.50;11.20;;;;;;4994862;28;20174;-72
2022/05/07 13:15:02;;;;;;;6.93;4.50;;;30.70;11.80;;;;;;4994351;28;20178;-73